createdAt,value
2022-08-09T00:01:56.042Z,1019.33
2022-08-09T00:08:31.692Z,1019.35
2022-08-09T00:14:39.338Z,1019.31
2022-08-09T00:20:58.982Z,1019.27
2022-08-09T00:27:21.982Z,1019.31
2022-08-09T00:33:49.299Z,1019.31
2022-08-09T00:40:10.094Z,1019.31
2022-08-09T00:46:28.596Z,1019.31
2022-08-09T00:52:47.968Z,1019.31
2022-08-09T00:59:07.974Z,1019.25
2022-08-09T01:05:46.349Z,1019.31
2022-08-09T01:11:53.047Z,1019.31
2022-08-09T01:18:14.184Z,1019.35
2022-08-09T01:24:34.013Z,1019.35
2022-08-09T01:30:58.223Z,1019.35
2022-08-09T01:37:16.973Z,1019.37
2022-08-09T01:43:42.396Z,1019.31
2022-08-09T01:49:59.961Z,1019.27
2022-08-09T01:56:22.974Z,1019.27
2022-08-09T02:02:43.050Z,1019.29
2022-08-09T02:09:05.976Z,1019.31
2022-08-09T02:15:26.926Z,1019.35
2022-08-09T02:21:49.060Z,1019.41
2022-08-09T02:28:09.529Z,1019.45
2022-08-09T02:34:41.224Z,1019.47
2022-08-09T02:40:52.122Z,1019.43
2022-08-09T02:47:15.017Z,1019.45
2022-08-09T02:53:34.975Z,1019.41
2022-08-09T03:00:11.679Z,1019.41
2022-08-09T03:06:17.967Z,1019.37
2022-08-09T03:12:40.986Z,1019.39
2022-08-09T03:19:01.742Z,1019.37
2022-08-09T03:25:26.277Z,1019.41
2022-08-09T03:32:00.138Z,1019.47
2022-08-09T03:54:32.275Z,1019.62
2022-08-09T04:00:55.101Z,1019.62
2022-08-09T04:07:15.986Z,1019.72
2022-08-09T04:13:45.188Z,1019.8
2022-08-09T04:19:57.985Z,1019.84
2022-08-09T04:26:21.089Z,1019.86
2022-08-09T04:32:41.166Z,1019.92
2022-08-09T04:39:04.209Z,1019.98
2022-08-09T04:45:23.990Z,1020.02
2022-08-09T04:51:47.058Z,1020.11
2022-08-09T04:58:09.375Z,1020.11
2022-08-09T05:04:30.917Z,1020.13
2022-08-09T05:10:49.974Z,1020.17
2022-08-09T05:17:15.178Z,1020.21
2022-08-09T05:23:50.769Z,1020.27
2022-08-09T05:29:55.971Z,1020.27
2022-08-09T05:36:16.076Z,1020.25
2022-08-09T05:42:39.008Z,1020.25
2022-08-09T05:48:59.339Z,1020.29
2022-08-09T05:55:23.399Z,1020.33
2022-08-09T06:01:42.352Z,1020.31
2022-08-09T06:08:07.956Z,1020.33
2022-08-09T06:14:25.122Z,1020.39
2022-08-09T06:20:50.036Z,1020.41
2022-08-09T06:27:07.972Z,1020.45
2022-08-09T06:33:40.364Z,1020.51
2022-08-09T06:39:58.291Z,1020.47
2022-08-09T06:46:39.330Z,1020.51
2022-08-09T06:52:34.183Z,1020.49
2022-08-09T07:00:47.895Z,1020.51
2022-08-09T07:05:16.963Z,1020.54
2022-08-09T07:11:45.802Z,1020.56
2022-08-09T07:18:02.218Z,1020.56
2022-08-09T07:24:24.349Z,1020.62
2022-08-09T07:30:43.985Z,1020.56
2022-08-09T07:37:11.000Z,1020.51
2022-08-09T07:43:29.061Z,1020.49
2022-08-09T07:49:52.505Z,1020.49
2022-08-09T07:56:09.974Z,1020.43
2022-08-09T08:02:33.345Z,1020.45
2022-08-09T08:09:02.852Z,1020.43
2022-08-09T08:15:16.596Z,1020.43
2022-08-09T08:21:39.417Z,1020.39
2022-08-09T08:27:59.029Z,1020.39
2022-08-09T08:34:20.813Z,1020.33
2022-08-09T08:40:42.046Z,1020.35
2022-08-09T08:47:03.462Z,1020.33
2022-08-09T08:53:25.038Z,1020.33
2022-08-09T09:09:41.347Z,1020.29
2022-08-09T09:15:51.995Z,1020.27
2022-08-09T09:22:15.826Z,1020.25
2022-08-09T09:28:39.343Z,1020.27
2022-08-09T09:34:57.979Z,1020.27
2022-08-09T09:41:17.989Z,1020.29
2022-08-09T09:47:47.623Z,1020.27
2022-08-09T09:54:04.765Z,1020.21
2022-08-09T10:00:24.905Z,1020.21
2022-08-09T10:06:46.918Z,1020.17
2022-08-09T10:13:07.051Z,1020.11
2022-08-09T10:19:26.989Z,1020.06
2022-08-09T10:26:04.697Z,1019.98
2022-08-09T10:32:37.879Z,1019.92
2022-08-09T10:38:34.310Z,1019.88
2022-08-09T10:44:53.127Z,1019.8
2022-08-09T10:51:15.979Z,1019.74
2022-08-09T10:57:36.329Z,1019.74
2022-08-09T11:04:02.144Z,1019.68
2022-08-09T11:10:18.997Z,1019.6
2022-08-09T11:16:41.988Z,1019.59
2022-08-09T11:23:02.834Z,1019.55
2022-08-09T11:30:04.116Z,1019.53
2022-08-09T11:35:47.248Z,1019.51
2022-08-09T11:42:08.072Z,1019.49
2022-08-09T11:48:28.044Z,1019.47
2022-08-09T11:54:50.970Z,1019.41
2022-08-09T12:01:15.778Z,1019.37
2022-08-09T12:07:34.588Z,1019.33
2022-08-09T12:14:06.836Z,1019.29
2022-08-09T12:20:22.101Z,1019.25
2022-08-09T12:26:37.010Z,1019.15
2022-08-09T12:32:59.990Z,1019.08
2022-08-09T12:39:20.174Z,1019.06
2022-08-09T12:45:43.175Z,1018.98
2022-08-09T12:52:03.683Z,1018.86
2022-08-09T12:58:27.612Z,1018.84
2022-08-09T13:04:45.988Z,1018.8
2022-08-09T13:11:13.537Z,1018.74
2022-08-09T13:17:44.616Z,1018.71
2022-08-09T13:24:06.095Z,1018.67
2022-08-09T13:30:39.506Z,1018.63
2022-08-09T13:36:41.924Z,1018.57
2022-08-09T13:42:55.020Z,1018.53
2022-08-09T13:49:18.646Z,1018.51
2022-08-09T13:55:37.995Z,1018.47
2022-08-09T14:02:02.451Z,1018.43
2022-08-09T14:08:21.061Z,1018.37
2022-08-09T14:14:44.144Z,1018.27
2022-08-09T14:21:04.010Z,1018.27
2022-08-09T14:46:40.711Z,1018.15
2022-08-09T14:52:11.978Z,1018.15
2022-08-09T14:58:31.978Z,1018.13
2022-08-09T15:04:54.976Z,1018.13
2022-08-09T15:11:14.982Z,1018.11
2022-08-09T15:17:42.008Z,1018.11
2022-08-09T15:24:03.819Z,1018.07
2022-08-09T15:30:47.902Z,1018.01
2022-08-09T15:36:47.998Z,1017.95
2022-08-09T15:43:04.000Z,1017.89
2022-08-09T15:49:24.117Z,1017.85
2022-08-09T15:55:58.820Z,1017.81
2022-08-09T16:02:06.977Z,1017.74
2022-08-09T16:08:31.484Z,1017.68
2022-08-09T16:14:50.000Z,1017.66
2022-08-09T16:21:17.105Z,1017.66
2022-08-09T16:27:32.999Z,1017.66
2022-08-09T16:33:55.983Z,1017.68
2022-08-09T16:40:20.814Z,1017.66
2022-08-09T16:46:38.995Z,1017.72
2022-08-09T16:52:58.988Z,1017.7
2022-08-09T16:59:22.001Z,1017.78
2022-08-09T17:06:03.289Z,1017.74
2022-08-09T17:12:06.857Z,1017.68
2022-08-09T17:18:26.888Z,1017.68
2022-08-09T17:24:54.787Z,1017.7
2022-08-09T17:31:08.081Z,1017.72
2022-08-09T17:37:30.973Z,1017.78
2022-08-09T17:44:38.275Z,1017.8
2022-08-09T17:50:17.045Z,1017.8
2022-08-09T17:56:35.792Z,1017.81
2022-08-09T18:02:58.259Z,1017.83
2022-08-09T18:09:16.980Z,1017.85
2022-08-09T18:15:50.574Z,1017.87
2022-08-09T18:21:59.995Z,1017.91
2022-08-09T18:30:37.551Z,1017.97
2022-08-09T18:34:42.983Z,1018.01
2022-08-09T18:41:06.014Z,1018.03
2022-08-09T18:47:27.668Z,1018.07
2022-08-09T18:53:57.034Z,1018.15
2022-08-09T19:00:08.980Z,1018.21
2022-08-09T19:06:31.985Z,1018.25
2022-08-09T19:12:53.971Z,1018.39
2022-08-09T19:19:21.417Z,1018.45
2022-08-09T19:25:42.943Z,1018.55
2022-08-09T19:31:59.803Z,1018.63
2022-08-09T19:38:17.988Z,1018.67
2022-08-09T19:44:40.975Z,1018.73
2022-08-09T19:51:00.971Z,1018.74
2022-08-09T19:57:25.648Z,1018.76
2022-08-09T20:04:14.184Z,1018.78
2022-08-09T20:10:17.440Z,1018.8
2022-08-09T20:32:55.485Z,1018.96
2022-08-09T20:39:19.077Z,1019
2022-08-09T20:45:58.238Z,1019.06
2022-08-09T20:51:57.970Z,1019.08
2022-08-09T20:58:20.973Z,1019.06
2022-08-09T21:05:50.139Z,1019.12
2022-08-09T21:11:06.307Z,1019.1
2022-08-09T21:18:12.366Z,1019.1
2022-08-09T21:23:48.083Z,1019.1
2022-08-09T21:30:06.988Z,1019.08
2022-08-09T21:36:29.970Z,1019.04
2022-08-09T21:42:54.220Z,1019.08
2022-08-09T21:49:13.009Z,1019.04
2022-08-09T21:55:34.021Z,1019.08
2022-08-09T22:19:58.239Z,1019.12
2022-08-09T22:26:12.757Z,1019.15
2022-08-09T22:32:33.962Z,1019.17
2022-08-09T22:38:53.977Z,1019.17
2022-08-09T22:48:06.708Z,1019.19
2022-08-09T22:51:38.228Z,1019.23
2022-08-09T22:58:00.500Z,1019.29
2022-08-09T23:04:19.974Z,1019.31
2022-08-09T23:10:43.892Z,1019.33
2022-08-09T23:17:02.968Z,1019.35
2022-08-09T23:23:25.969Z,1019.37
2022-08-09T23:29:45.991Z,1019.37
2022-08-09T23:36:08.979Z,1019.43
2022-08-09T23:42:28.968Z,1019.41
2022-08-09T23:48:51.970Z,1019.45
2022-08-09T23:55:11.995Z,1019.47
